sensor_id;sensor_type;location;lat;lon;timestamp;temperature;humidity
9939;DHT22;5008;50.656;7.188;2023-07-29T03:54:03;18.80;99.90
9939;DHT22;5008;50.656;7.188;2023-07-29T03:56:29;18.90;99.90
9939;DHT22;5008;50.656;7.188;2023-07-29T03:59:02;18.90;99.90
9939;DHT22;5008;50.656;7.188;2023-07-29T04:01:29;18.90;99.90
9939;DHT22;5008;50.656;7.188;2023-07-29T04:03:56;18.80;99.90
9939;DHT22;5008;50.656;7.188;2023-07-29T04:06:23;18.70;99.90
9939;DHT22;5008;50.656;7.188;2023-07-29T04:08:50;18.70;99.90
9939;DHT22;5008;50.656;7.188;2023-07-29T04:11:18;18.60;99.90
9939;DHT22;5008;50.656;7.188;2023-07-29T04:13:47;18.60;99.90
9939;DHT22;5008;50.656;7.188;2023-07-29T04:16:14;18.60;99.90
9939;DHT22;5008;50.656;7.188;2023-07-29T04:18:42;18.60;99.90
9939;DHT22;5008;50.656;7.188;2023-07-29T04:21:09;18.60;99.90
9939;DHT22;5008;50.656;7.188;2023-07-29T04:23:35;18.60;99.90
9939;DHT22;5008;50.656;7.188;2023-07-29T04:26:02;18.60;99.90
9939;DHT22;5008;50.656;7.188;2023-07-29T04:28:30;18.60;99.90
9939;DHT22;5008;50.656;7.188;2023-07-29T04:30:57;18.60;99.90
9939;DHT22;5008;50.656;7.188;2023-07-29T04:33:25;18.50;99.90
9939;DHT22;5008;50.656;7.188;2023-07-29T04:35:52;18.50;99.90
9939;DHT22;5008;50.656;7.188;2023-07-29T04:38:18;18.50;99.90
9939;DHT22;5008;50.656;7.188;2023-07-29T04:40:45;18.60;99.90
9939;DHT22;5008;50.656;7.188;2023-07-29T04:43:13;18.60;99.90
9939;DHT22;5008;50.656;7.188;2023-07-29T04:45:44;18.60;99.90
9939;DHT22;5008;50.656;7.188;2023-07-29T04:48:11;18.60;99.90
9939;DHT22;5008;50.656;7.188;2023-07-29T04:50:37;18.60;99.90
9939;DHT22;5008;50.656;7.188;2023-07-29T04:53:14;18.60;99.90
9939;DHT22;5008;50.656;7.188;2023-07-29T04:56:09;18.60;99.90
9939;DHT22;5008;50.656;7.188;2023-07-29T04:58:36;18.60;99.90
9939;DHT22;5008;50.656;7.188;2023-07-29T05:01:05;18.60;99.90
9939;DHT22;5008;50.656;7.188;2023-07-29T05:03:32;18.60;99.90
9939;DHT22;5008;50.656;7.188;2023-07-29T05:06:07;18.50;99.90
9939;DHT22;5008;50.656;7.188;2023-07-29T05:08:50;18.50;99.90
9939;DHT22;5008;50.656;7.188;2023-07-29T05:11:16;18.50;99.90
9939;DHT22;5008;50.656;7.188;2023-07-29T05:13:44;18.50;99.90
9939;DHT22;5008;50.656;7.188;2023-07-29T05:16:12;18.50;99.90
9939;DHT22;5008;50.656;7.188;2023-07-29T05:18:39;18.50;99.90
9939;DHT22;5008;50.656;7.188;2023-07-29T05:21:06;18.50;99.90
9939;DHT22;5008;50.656;7.188;2023-07-29T05:23:33;18.50;99.90
9939;DHT22;5008;50.656;7.188;2023-07-29T05:26:00;18.50;99.90
9939;DHT22;5008;50.656;7.188;2023-07-29T05:28:27;18.60;99.90
9939;DHT22;5008;50.656;7.188;2023-07-29T05:30:54;18.60;99.90
9939;DHT22;5008;50.656;7.188;2023-07-29T05:33:23;18.60;99.90
9939;DHT22;5008;50.656;7.188;2023-07-29T05:35:50;18.70;99.90
9939;DHT22;5008;50.656;7.188;2023-07-29T05:38:16;18.70;99.90
9939;DHT22;5008;50.656;7.188;2023-07-29T05:40:43;18.70;99.90
9939;DHT22;5008;50.656;7.188;2023-07-29T05:43:10;18.70;99.90
9939;DHT22;5008;50.656;7.188;2023-07-29T05:45:37;18.80;99.90
9939;DHT22;5008;50.656;7.188;2023-07-29T05:48:11;18.70;99.90
9939;DHT22;5008;50.656;7.188;2023-07-29T05:50:39;18.70;99.90
9939;DHT22;5008;50.656;7.188;2023-07-29T05:53:06;18.70;99.90
9939;DHT22;5008;50.656;7.188;2023-07-29T05:55:33;18.70;99.90
9939;DHT22;5008;50.656;7.188;2023-07-29T05:57:59;18.70;99.90
9939;DHT22;5008;50.656;7.188;2023-07-29T06:00:27;18.70;99.90
9939;DHT22;5008;50.656;7.188;2023-07-29T06:02:54;18.70;99.90
9939;DHT22;5008;50.656;7.188;2023-07-29T06:05:21;18.70;99.90
9939;DHT22;5008;50.656;7.188;2023-07-29T06:07:49;18.80;99.90
9939;DHT22;5008;50.656;7.188;2023-07-29T06:10:32;18.70;99.90
9939;DHT22;5008;50.656;7.188;2023-07-29T06:12:59;18.70;99.90
9939;DHT22;5008;50.656;7.188;2023-07-29T06:15:26;18.70;99.90
9939;DHT22;5008;50.656;7.188;2023-07-29T06:18:04;18.80;99.90
9939;DHT22;5008;50.656;7.188;2023-07-29T06:20:31;18.80;99.90
9939;DHT22;5008;50.656;7.188;2023-07-29T06:23:00;18.80;99.90
9939;DHT22;5008;50.656;7.188;2023-07-29T06:25:27;18.80;99.90
9939;DHT22;5008;50.656;7.188;2023-07-29T06:27:54;18.80;99.90
9939;DHT22;5008;50.656;7.188;2023-07-29T06:30:21;18.80;99.90
9939;DHT22;5008;50.656;7.188;2023-07-29T06:32:48;18.90;99.90
9939;DHT22;5008;50.656;7.188;2023-07-29T06:35:15;18.90;99.90
9939;DHT22;5008;50.656;7.188;2023-07-29T06:37:41;18.90;99.90
9939;DHT22;5008;50.656;7.188;2023-07-29T06:40:10;18.90;99.90
9939;DHT22;5008;50.656;7.188;2023-07-29T06:42:37;18.90;99.90
9939;DHT22;5008;50.656;7.188;2023-07-29T06:45:05;18.90;99.90
9939;DHT22;5008;50.656;7.188;2023-07-29T06:47:32;18.90;99.90
9939;DHT22;5008;50.656;7.188;2023-07-29T06:49:59;18.80;99.90
9939;DHT22;5008;50.656;7.188;2023-07-29T06:52:26;18.90;99.90
9939;DHT22;5008;50.656;7.188;2023-07-29T06:54:52;19.00;99.90
9939;DHT22;5008;50.656;7.188;2023-07-29T06:57:21;19.00;99.90
9939;DHT22;5008;50.656;7.188;2023-07-29T06:59:47;19.10;99.90
9939;DHT22;5008;50.656;7.188;2023-07-29T07:02:14;19.00;99.90
9939;DHT22;5008;50.656;7.188;2023-07-29T07:04:41;19.10;99.90
9939;DHT22;5008;50.656;7.188;2023-07-29T07:07:08;19.20;99.90
9939;DHT22;5008;50.656;7.188;2023-07-29T07:09:35;19.20;99.90
9939;DHT22;5008;50.656;7.188;2023-07-29T07:12:01;19.30;99.90
9939;DHT22;5008;50.656;7.188;2023-07-29T07:14:29;19.30;99.90
9939;DHT22;5008;50.656;7.188;2023-07-29T07:16:56;19.40;99.90
9939;DHT22;5008;50.656;7.188;2023-07-29T07:19:23;19.50;99.90
9939;DHT22;5008;50.656;7.188;2023-07-29T07:21:50;19.60;99.90
9939;DHT22;5008;50.656;7.188;2023-07-29T07:24:17;19.70;99.90
9939;DHT22;5008;50.656;7.188;2023-07-29T07:26:43;19.70;99.90
9939;DHT22;5008;50.656;7.188;2023-07-29T07:29:10;19.90;99.90
9939;DHT22;5008;50.656;7.188;2023-07-29T07:31:38;19.90;99.90
9939;DHT22;5008;50.656;7.188;2023-07-29T07:34:05;19.90;99.90
9939;DHT22;5008;50.656;7.188;2023-07-29T07:36:32;19.90;99.90
9939;DHT22;5008;50.656;7.188;2023-07-29T07:38:59;19.90;99.90
9939;DHT22;5008;50.656;7.188;2023-07-29T07:41:25;19.90;99.90
9939;DHT22;5008;50.656;7.188;2023-07-29T07:43:52;19.90;99.90
9939;DHT22;5008;50.656;7.188;2023-07-29T07:46:19;20.00;99.90
9939;DHT22;5008;50.656;7.188;2023-07-29T07:48:47;19.90;99.90
9939;DHT22;5008;50.656;7.188;2023-07-29T07:51:14;19.80;99.90
9939;DHT22;5008;50.656;7.188;2023-07-29T07:53:41;19.90;99.90
9939;DHT22;5008;50.656;7.188;2023-07-29T07:56:08;19.80;99.90
9939;DHT22;5008;50.656;7.188;2023-07-29T07:58:35;19.80;99.90
9939;DHT22;5008;50.656;7.188;2023-07-29T08:01:02;19.80;99.90
9939;DHT22;5008;50.656;7.188;2023-07-29T08:03:29;19.80;99.90
9939;DHT22;5008;50.656;7.188;2023-07-29T08:05:58;19.90;99.90
9939;DHT22;5008;50.656;7.188;2023-07-29T08:08:25;20.00;99.90
9939;DHT22;5008;50.656;7.188;2023-07-29T08:10:52;20.00;99.90
9939;DHT22;5008;50.656;7.188;2023-07-29T08:13:19;20.10;99.90
9939;DHT22;5008;50.656;7.188;2023-07-29T08:15:47;20.20;99.90
9939;DHT22;5008;50.656;7.188;2023-07-29T08:18:14;20.20;99.90
9939;DHT22;5008;50.656;7.188;2023-07-29T08:20:41;20.00;99.90
9939;DHT22;5008;50.656;7.188;2023-07-29T08:23:09;20.00;99.90
9939;DHT22;5008;50.656;7.188;2023-07-29T08:25:36;19.90;99.90
9939;DHT22;5008;50.656;7.188;2023-07-29T08:28:03;19.90;99.90
9939;DHT22;5008;50.656;7.188;2023-07-29T08:30:30;19.90;99.90
9939;DHT22;5008;50.656;7.188;2023-07-29T08:32:57;19.90;99.90
9939;DHT22;5008;50.656;7.188;2023-07-29T08:35:24;19.90;99.90
9939;DHT22;5008;50.656;7.188;2023-07-29T08:37:50;19.90;99.90
9939;DHT22;5008;50.656;7.188;2023-07-29T08:40:29;20.00;99.90
9939;DHT22;5008;50.656;7.188;2023-07-29T08:42:58;20.00;99.90
9939;DHT22;5008;50.656;7.188;2023-07-29T08:45:27;20.00;99.90
9939;DHT22;5008;50.656;7.188;2023-07-29T08:47:57;20.00;99.90
9939;DHT22;5008;50.656;7.188;2023-07-29T08:50:25;20.00;99.90
9939;DHT22;5008;50.656;7.188;2023-07-29T08:52:52;19.90;99.90
9939;DHT22;5008;50.656;7.188;2023-07-29T08:55:19;19.90;99.90
9939;DHT22;5008;50.656;7.188;2023-07-29T08:57:47;20.00;99.90
9939;DHT22;5008;50.656;7.188;2023-07-29T09:00:15;20.00;99.90
9939;DHT22;5008;50.656;7.188;2023-07-29T09:02:41;20.00;99.90
9939;DHT22;5008;50.656;7.188;2023-07-29T09:05:08;19.80;99.90
9939;DHT22;5008;50.656;7.188;2023-07-29T09:07:36;19.80;99.90
9939;DHT22;5008;50.656;7.188;2023-07-29T09:10:04;19.70;99.90
9939;DHT22;5008;50.656;7.188;2023-07-29T09:12:31;19.70;99.90
9939;DHT22;5008;50.656;7.188;2023-07-29T09:14:59;19.70;99.90
9939;DHT22;5008;50.656;7.188;2023-07-29T09:17:26;19.70;99.90
9939;DHT22;5008;50.656;7.188;2023-07-29T09:19:53;19.70;99.90
9939;DHT22;5008;50.656;7.188;2023-07-29T09:22:21;19.70;99.90
9939;DHT22;5008;50.656;7.188;2023-07-29T09:24:50;19.70;99.90
9939;DHT22;5008;50.656;7.188;2023-07-29T09:27:26;19.80;99.90
9939;DHT22;5008;50.656;7.188;2023-07-29T09:29:54;19.80;99.90
9939;DHT22;5008;50.656;7.188;2023-07-29T09:32:23;19.90;99.90
9939;DHT22;5008;50.656;7.188;2023-07-29T09:34:50;20.00;99.90
9939;DHT22;5008;50.656;7.188;2023-07-29T09:37:17;20.10;99.90
9939;DHT22;5008;50.656;7.188;2023-07-29T09:39:45;20.10;99.90
9939;DHT22;5008;50.656;7.188;2023-07-29T09:42:17;20.00;99.90
9939;DHT22;5008;50.656;7.188;2023-07-29T09:44:45;20.00;99.90
9939;DHT22;5008;50.656;7.188;2023-07-29T09:47:19;20.10;99.90
9939;DHT22;5008;50.656;7.188;2023-07-29T09:49:48;20.10;99.90
9939;DHT22;5008;50.656;7.188;2023-07-29T09:52:16;20.00;99.90
9939;DHT22;5008;50.656;7.188;2023-07-29T09:54:43;20.00;99.90
9939;DHT22;5008;50.656;7.188;2023-07-29T09:57:16;19.90;99.90
9939;DHT22;5008;50.656;7.188;2023-07-29T09:59:56;20.00;99.90
9939;DHT22;5008;50.656;7.188;2023-07-29T10:02:23;20.10;99.90
9939;DHT22;5008;50.656;7.188;2023-07-29T10:04:56;20.20;99.90
9939;DHT22;5008;50.656;7.188;2023-07-29T10:07:24;20.20;99.90
9939;DHT22;5008;50.656;7.188;2023-07-29T10:09:52;20.30;99.90
9939;DHT22;5008;50.656;7.188;2023-07-29T10:12:19;20.30;99.90
9939;DHT22;5008;50.656;7.188;2023-07-29T10:14:47;20.40;99.90
9939;DHT22;5008;50.656;7.188;2023-07-29T10:17:16;20.40;99.90
9939;DHT22;5008;50.656;7.188;2023-07-29T10:19:44;20.40;99.90
9939;DHT22;5008;50.656;7.188;2023-07-29T10:22:13;20.50;99.90
9939;DHT22;5008;50.656;7.188;2023-07-29T10:24:45;20.50;99.90
9939;DHT22;5008;50.656;7.188;2023-07-29T10:27:15;20.50;99.90
9939;DHT22;5008;50.656;7.188;2023-07-29T10:29:44;20.40;99.90
9939;DHT22;5008;50.656;7.188;2023-07-29T10:32:12;20.40;99.90
9939;DHT22;5008;50.656;7.188;2023-07-29T10:34:39;20.40;99.90
9939;DHT22;5008;50.656;7.188;2023-07-29T10:37:06;20.40;99.90
9939;DHT22;5008;50.656;7.188;2023-07-29T10:39:39;20.50;99.90
9939;DHT22;5008;50.656;7.188;2023-07-29T10:42:08;20.40;99.90
9939;DHT22;5008;50.656;7.188;2023-07-29T10:44:48;20.40;99.90
9939;DHT22;5008;50.656;7.188;2023-07-29T10:47:22;20.40;99.90
9939;DHT22;5008;50.656;7.188;2023-07-29T10:49:52;20.30;99.90
9939;DHT22;5008;50.656;7.188;2023-07-29T10:52:31;20.30;99.90
9939;DHT22;5008;50.656;7.188;2023-07-29T10:54:59;20.30;99.90
9939;DHT22;5008;50.656;7.188;2023-07-29T10:57:31;20.20;99.90
9939;DHT22;5008;50.656;7.188;2023-07-29T10:59:59;20.20;99.90
9939;DHT22;5008;50.656;7.188;2023-07-29T11:02:29;20.20;99.90
9939;DHT22;5008;50.656;7.188;2023-07-29T11:04:57;20.20;99.90
9939;DHT22;5008;50.656;7.188;2023-07-29T11:07:25;20.20;99.90
9939;DHT22;5008;50.656;7.188;2023-07-29T11:10:03;20.20;99.90
9939;DHT22;5008;50.656;7.188;2023-07-29T11:12:35;20.10;99.90
9939;DHT22;5008;50.656;7.188;2023-07-29T11:15:03;20.00;99.90
9939;DHT22;5008;50.656;7.188;2023-07-29T11:17:32;19.90;99.90
9939;DHT22;5008;50.656;7.188;2023-07-29T11:20:01;19.90;99.90
9939;DHT22;5008;50.656;7.188;2023-07-29T11:22:28;19.70;99.90
9939;DHT22;5008;50.656;7.188;2023-07-29T11:24:55;19.60;99.90
9939;DHT22;5008;50.656;7.188;2023-07-29T11:27:23;19.50;99.90
9939;DHT22;5008;50.656;7.188;2023-07-29T11:29:50;19.50;99.90
9939;DHT22;5008;50.656;7.188;2023-07-29T11:32:25;19.50;99.90
9939;DHT22;5008;50.656;7.188;2023-07-29T11:34:52;19.50;99.90
9939;DHT22;5008;50.656;7.188;2023-07-29T11:37:19;19.50;99.90
9939;DHT22;5008;50.656;7.188;2023-07-29T11:39:47;19.40;99.90
9939;DHT22;5008;50.656;7.188;2023-07-29T11:42:15;19.40;99.90
9939;DHT22;5008;50.656;7.188;2023-07-29T11:44:43;19.40;99.90
9939;DHT22;5008;50.656;7.188;2023-07-29T11:47:11;19.40;99.90
9939;DHT22;5008;50.656;7.188;2023-07-29T11:49:39;19.50;99.90
9939;DHT22;5008;50.656;7.188;2023-07-29T11:52:07;19.50;99.90
9939;DHT22;5008;50.656;7.188;2023-07-29T11:54:35;19.50;99.90
9939;DHT22;5008;50.656;7.188;2023-07-29T11:57:03;19.70;99.90
9939;DHT22;5008;50.656;7.188;2023-07-29T11:59:34;19.80;99.90
9939;DHT22;5008;50.656;7.188;2023-07-29T12:02:06;19.90;99.90
9939;DHT22;5008;50.656;7.188;2023-07-29T12:04:34;19.90;99.90
9939;DHT22;5008;50.656;7.188;2023-07-29T12:07:02;20.10;99.90
9939;DHT22;5008;50.656;7.188;2023-07-29T12:09:29;20.00;99.90
9939;DHT22;5008;50.656;7.188;2023-07-29T12:11:56;20.10;99.90
9939;DHT22;5008;50.656;7.188;2023-07-29T12:14:25;20.20;99.90
9939;DHT22;5008;50.656;7.188;2023-07-29T12:16:52;20.30;99.90
9939;DHT22;5008;50.656;7.188;2023-07-29T12:19:21;20.30;99.90
9939;DHT22;5008;50.656;7.188;2023-07-29T12:21:51;20.40;99.90
9939;DHT22;5008;50.656;7.188;2023-07-29T12:24:19;20.40;99.90
9939;DHT22;5008;50.656;7.188;2023-07-29T12:26:48;20.50;99.90
9939;DHT22;5008;50.656;7.188;2023-07-29T12:29:17;20.50;99.90
9939;DHT22;5008;50.656;7.188;2023-07-29T12:31:45;20.60;99.90
9939;DHT22;5008;50.656;7.188;2023-07-29T12:34:17;20.60;99.90
9939;DHT22;5008;50.656;7.188;2023-07-29T12:36:48;20.60;99.90
9939;DHT22;5008;50.656;7.188;2023-07-29T12:39:19;20.70;99.90
9939;DHT22;5008;50.656;7.188;2023-07-29T12:41:46;20.80;99.90
9939;DHT22;5008;50.656;7.188;2023-07-29T12:44:13;20.80;99.90
9939;DHT22;5008;50.656;7.188;2023-07-29T12:46:42;20.80;99.90
9939;DHT22;5008;50.656;7.188;2023-07-29T12:49:18;20.90;99.90
9939;DHT22;5008;50.656;7.188;2023-07-29T12:51:47;20.90;99.90
9939;DHT22;5008;50.656;7.188;2023-07-29T12:54:24;21.00;99.90
9939;DHT22;5008;50.656;7.188;2023-07-29T12:56:51;21.00;99.90
9939;DHT22;5008;50.656;7.188;2023-07-29T12:59:31;21.10;99.90
9939;DHT22;5008;50.656;7.188;2023-07-29T13:02:14;21.40;99.90
9939;DHT22;5008;50.656;7.188;2023-07-29T13:04:41;21.80;99.90
9939;DHT22;5008;50.656;7.188;2023-07-29T13:07:09;21.90;99.90
9939;DHT22;5008;50.656;7.188;2023-07-29T13:09:36;21.90;99.90
9939;DHT22;5008;50.656;7.188;2023-07-29T13:12:02;21.90;99.90
9939;DHT22;5008;50.656;7.188;2023-07-29T13:14:29;21.90;99.90
9939;DHT22;5008;50.656;7.188;2023-07-29T13:16:55;22.10;99.90
9939;DHT22;5008;50.656;7.188;2023-07-29T13:19:22;22.30;99.90
9939;DHT22;5008;50.656;7.188;2023-07-29T13:21:50;22.60;99.90
9939;DHT22;5008;50.656;7.188;2023-07-29T13:24:18;23.30;99.90
9939;DHT22;5008;50.656;7.188;2023-07-29T13:26:45;23.20;99.90
9939;DHT22;5008;50.656;7.188;2023-07-29T13:29:13;23.40;99.90
9939;DHT22;5008;50.656;7.188;2023-07-29T13:31:42;23.20;99.90
9939;DHT22;5008;50.656;7.188;2023-07-29T13:34:10;23.30;99.90
9939;DHT22;5008;50.656;7.188;2023-07-29T13:36:37;23.10;99.90
9939;DHT22;5008;50.656;7.188;2023-07-29T13:39:03;22.70;99.90
9939;DHT22;5008;50.656;7.188;2023-07-29T13:41:31;22.40;99.90
9939;DHT22;5008;50.656;7.188;2023-07-29T13:43:58;22.20;99.90
9939;DHT22;5008;50.656;7.188;2023-07-29T13:46:25;22.00;99.90
9939;DHT22;5008;50.656;7.188;2023-07-29T13:48:52;21.80;99.90
9939;DHT22;5008;50.656;7.188;2023-07-29T13:51:19;21.70;99.90
9939;DHT22;5008;50.656;7.188;2023-07-29T13:53:46;21.60;99.90
9939;DHT22;5008;50.656;7.188;2023-07-29T13:56:13;21.50;99.90
9939;DHT22;5008;50.656;7.188;2023-07-29T13:58:41;21.50;99.90
9939;DHT22;5008;50.656;7.188;2023-07-29T14:01:08;21.60;99.90
9939;DHT22;5008;50.656;7.188;2023-07-29T14:03:34;21.60;99.90
9939;DHT22;5008;50.656;7.188;2023-07-29T14:06:01;21.50;99.90
9939;DHT22;5008;50.656;7.188;2023-07-29T14:08:28;21.50;99.90
9939;DHT22;5008;50.656;7.188;2023-07-29T14:10:55;21.40;99.90
9939;DHT22;5008;50.656;7.188;2023-07-29T14:13:22;21.30;99.90
9939;DHT22;5008;50.656;7.188;2023-07-29T14:15:50;21.20;99.90
9939;DHT22;5008;50.656;7.188;2023-07-29T14:18:17;21.30;99.90
9939;DHT22;5008;50.656;7.188;2023-07-29T14:20:44;21.20;99.90
9939;DHT22;5008;50.656;7.188;2023-07-29T14:23:11;21.20;99.90
9939;DHT22;5008;50.656;7.188;2023-07-29T14:25:38;21.30;99.90
9939;DHT22;5008;50.656;7.188;2023-07-29T14:28:04;21.40;99.90
9939;DHT22;5008;50.656;7.188;2023-07-29T14:30:31;21.60;99.90
9939;DHT22;5008;50.656;7.188;2023-07-29T14:32:59;21.80;99.90
9939;DHT22;5008;50.656;7.188;2023-07-29T14:35:26;21.90;99.90
9939;DHT22;5008;50.656;7.188;2023-07-29T14:37:53;22.00;99.90
9939;DHT22;5008;50.656;7.188;2023-07-29T14:40:20;22.10;99.90
9939;DHT22;5008;50.656;7.188;2023-07-29T14:42:47;22.10;99.90
9939;DHT22;5008;50.656;7.188;2023-07-29T14:45:14;22.10;99.90
9939;DHT22;5008;50.656;7.188;2023-07-29T14:47:40;22.00;99.90
9939;DHT22;5008;50.656;7.188;2023-07-29T14:50:09;21.90;99.90
9939;DHT22;5008;50.656;7.188;2023-07-29T14:52:35;21.80;99.90
9939;DHT22;5008;50.656;7.188;2023-07-29T14:55:03;21.70;99.90
9939;DHT22;5008;50.656;7.188;2023-07-29T14:57:30;21.60;99.90
9939;DHT22;5008;50.656;7.188;2023-07-29T14:59:57;21.60;99.90
9939;DHT22;5008;50.656;7.188;2023-07-29T15:02:23;21.50;99.90
9939;DHT22;5008;50.656;7.188;2023-07-29T15:04:51;21.50;99.90
9939;DHT22;5008;50.656;7.188;2023-07-29T15:07:19;21.40;99.90
9939;DHT22;5008;50.656;7.188;2023-07-29T15:09:46;21.40;99.90
9939;DHT22;5008;50.656;7.188;2023-07-29T15:12:13;21.40;99.90
9939;DHT22;5008;50.656;7.188;2023-07-29T15:14:39;21.30;99.90
9939;DHT22;5008;50.656;7.188;2023-07-29T15:17:06;21.30;99.90
9939;DHT22;5008;50.656;7.188;2023-07-29T15:19:33;21.30;99.90
9939;DHT22;5008;50.656;7.188;2023-07-29T15:22:00;21.30;99.90
9939;DHT22;5008;50.656;7.188;2023-07-29T15:24:31;21.20;99.90
9939;DHT22;5008;50.656;7.188;2023-07-29T15:26:58;21.20;99.90
9939;DHT22;5008;50.656;7.188;2023-07-29T15:29:25;21.10;99.90
9939;DHT22;5008;50.656;7.188;2023-07-29T15:31:52;21.00;99.90
9939;DHT22;5008;50.656;7.188;2023-07-29T15:34:19;21.00;99.90
9939;DHT22;5008;50.656;7.188;2023-07-29T15:36:48;21.00;99.90
9939;DHT22;5008;50.656;7.188;2023-07-29T15:39:15;20.90;99.90
9939;DHT22;5008;50.656;7.188;2023-07-29T15:41:43;20.80;99.90
9939;DHT22;5008;50.656;7.188;2023-07-29T15:44:10;20.70;99.90
9939;DHT22;5008;50.656;7.188;2023-07-29T15:46:36;20.70;99.90
9939;DHT22;5008;50.656;7.188;2023-07-29T15:49:04;20.60;99.90
9939;DHT22;5008;50.656;7.188;2023-07-29T15:51:31;20.60;99.90
9939;DHT22;5008;50.656;7.188;2023-07-29T15:53:58;20.60;99.90
9939;DHT22;5008;50.656;7.188;2023-07-29T15:56:27;20.60;99.90
9939;DHT22;5008;50.656;7.188;2023-07-29T15:58:55;20.50;99.90
9939;DHT22;5008;50.656;7.188;2023-07-29T16:01:22;20.30;99.90
9939;DHT22;5008;50.656;7.188;2023-07-29T16:03:49;20.20;99.90
9939;DHT22;5008;50.656;7.188;2023-07-29T16:06:16;20.20;99.90
9939;DHT22;5008;50.656;7.188;2023-07-29T16:08:43;20.30;99.90
9939;DHT22;5008;50.656;7.188;2023-07-29T16:11:09;20.50;99.90
9939;DHT22;5008;50.656;7.188;2023-07-29T16:13:36;20.50;99.90
9939;DHT22;5008;50.656;7.188;2023-07-29T16:16:05;20.50;99.90
9939;DHT22;5008;50.656;7.188;2023-07-29T16:18:32;20.40;99.90
9939;DHT22;5008;50.656;7.188;2023-07-29T16:20:59;20.30;99.90
9939;DHT22;5008;50.656;7.188;2023-07-29T16:23:28;20.20;99.90
9939;DHT22;5008;50.656;7.188;2023-07-29T16:25:56;20.10;99.90
9939;DHT22;5008;50.656;7.188;2023-07-29T16:28:22;20.00;99.90
9939;DHT22;5008;50.656;7.188;2023-07-29T16:30:49;19.80;99.90
9939;DHT22;5008;50.656;7.188;2023-07-29T16:33:18;20.20;99.90
9939;DHT22;5008;50.656;7.188;2023-07-29T16:35:45;20.50;99.90
9939;DHT22;5008;50.656;7.188;2023-07-29T16:38:12;20.40;99.90
9939;DHT22;5008;50.656;7.188;2023-07-29T16:40:38;20.30;99.90
9939;DHT22;5008;50.656;7.188;2023-07-29T16:43:05;20.60;99.90
9939;DHT22;5008;50.656;7.188;2023-07-29T16:45:32;20.60;99.90
9939;DHT22;5008;50.656;7.188;2023-07-29T16:47:59;20.60;99.90
9939;DHT22;5008;50.656;7.188;2023-07-29T16:50:27;20.50;99.90
9939;DHT22;5008;50.656;7.188;2023-07-29T16:52:54;20.70;99.90
9939;DHT22;5008;50.656;7.188;2023-07-29T16:55:22;20.90;99.90
9939;DHT22;5008;50.656;7.188;2023-07-29T16:57:49;20.90;99.90
9939;DHT22;5008;50.656;7.188;2023-07-29T17:00:16;20.80;99.90
9939;DHT22;5008;50.656;7.188;2023-07-29T17:02:43;20.90;99.90
9939;DHT22;5008;50.656;7.188;2023-07-29T17:05:12;20.90;99.90
9939;DHT22;5008;50.656;7.188;2023-07-29T17:07:40;20.90;99.90
9939;DHT22;5008;50.656;7.188;2023-07-29T17:10:07;21.00;99.90
9939;DHT22;5008;50.656;7.188;2023-07-29T17:12:35;20.90;99.90
9939;DHT22;5008;50.656;7.188;2023-07-29T17:15:03;20.80;99.90
9939;DHT22;5008;50.656;7.188;2023-07-29T17:17:32;20.70;99.90
9939;DHT22;5008;50.656;7.188;2023-07-29T17:19:59;20.70;99.90
9939;DHT22;5008;50.656;7.188;2023-07-29T17:22:26;20.60;99.90
9939;DHT22;5008;50.656;7.188;2023-07-29T17:24:55;20.50;99.90
9939;DHT22;5008;50.656;7.188;2023-07-29T17:27:22;20.50;99.90
9939;DHT22;5008;50.656;7.188;2023-07-29T17:29:49;20.40;99.90
9939;DHT22;5008;50.656;7.188;2023-07-29T17:32:16;20.30;99.90
9939;DHT22;5008;50.656;7.188;2023-07-29T17:34:43;20.30;99.90
9939;DHT22;5008;50.656;7.188;2023-07-29T17:37:10;20.20;99.90
9939;DHT22;5008;50.656;7.188;2023-07-29T17:39:37;20.10;99.90
9939;DHT22;5008;50.656;7.188;2023-07-29T17:42:08;20.20;99.90
9939;DHT22;5008;50.656;7.188;2023-07-29T17:44:36;20.20;99.90
9939;DHT22;5008;50.656;7.188;2023-07-29T17:47:03;20.20;99.90
9939;DHT22;5008;50.656;7.188;2023-07-29T17:49:30;20.20;99.90
9939;DHT22;5008;50.656;7.188;2023-07-29T17:51:57;20.20;99.90
9939;DHT22;5008;50.656;7.188;2023-07-29T17:54:23;20.20;99.90
9939;DHT22;5008;50.656;7.188;2023-07-29T17:56:52;20.20;99.90
9939;DHT22;5008;50.656;7.188;2023-07-29T17:59:20;20.20;99.90
9939;DHT22;5008;50.656;7.188;2023-07-29T18:01:47;20.20;99.90
9939;DHT22;5008;50.656;7.188;2023-07-29T18:04:14;20.10;99.90
9939;DHT22;5008;50.656;7.188;2023-07-29T18:06:41;20.10;99.90
9939;DHT22;5008;50.656;7.188;2023-07-29T18:09:08;20.00;99.90
9939;DHT22;5008;50.656;7.188;2023-07-29T18:11:47;20.00;99.90
9939;DHT22;5008;50.656;7.188;2023-07-29T18:14:14;20.00;99.90
9939;DHT22;5008;50.656;7.188;2023-07-29T18:16:42;19.90;99.90
9939;DHT22;5008;50.656;7.188;2023-07-29T18:19:09;19.90;99.90
9939;DHT22;5008;50.656;7.188;2023-07-29T18:21:36;19.90;99.90
9939;DHT22;5008;50.656;7.188;2023-07-29T18:24:03;19.90;99.90
9939;DHT22;5008;50.656;7.188;2023-07-29T18:26:40;19.80;99.90
9939;DHT22;5008;50.656;7.188;2023-07-29T18:29:07;19.80;99.90
9939;DHT22;5008;50.656;7.188;2023-07-29T18:31:34;19.80;99.90
9939;DHT22;5008;50.656;7.188;2023-07-29T18:34:02;19.90;99.90
9939;DHT22;5008;50.656;7.188;2023-07-29T18:36:29;19.80;99.90
9939;DHT22;5008;50.656;7.188;2023-07-29T18:38:56;19.80;99.90
9939;DHT22;5008;50.656;7.188;2023-07-29T18:41:25;19.70;99.90
9939;DHT22;5008;50.656;7.188;2023-07-29T18:43:52;19.70;99.90
9939;DHT22;5008;50.656;7.188;2023-07-29T18:46:23;19.50;99.90
9939;DHT22;5008;50.656;7.188;2023-07-29T18:48:51;19.50;99.90
9939;DHT22;5008;50.656;7.188;2023-07-29T18:51:19;19.50;99.90
9939;DHT22;5008;50.656;7.188;2023-07-29T18:53:46;19.50;99.90
9939;DHT22;5008;50.656;7.188;2023-07-29T18:56:13;19.50;99.90
9939;DHT22;5008;50.656;7.188;2023-07-29T18:58:40;19.50;99.90
9939;DHT22;5008;50.656;7.188;2023-07-29T19:01:06;19.50;99.90
9939;DHT22;5008;50.656;7.188;2023-07-29T19:03:35;19.40;99.90
9939;DHT22;5008;50.656;7.188;2023-07-29T19:06:02;19.30;99.90
9939;DHT22;5008;50.656;7.188;2023-07-29T19:08:30;19.30;99.90
9939;DHT22;5008;50.656;7.188;2023-07-29T19:10:57;19.20;99.90
9939;DHT22;5008;50.656;7.188;2023-07-29T19:13:24;19.10;99.90
9939;DHT22;5008;50.656;7.188;2023-07-29T19:15:51;19.10;99.90
9939;DHT22;5008;50.656;7.188;2023-07-29T19:18:20;19.10;99.90
9939;DHT22;5008;50.656;7.188;2023-07-29T19:20:48;19.10;99.90
9939;DHT22;5008;50.656;7.188;2023-07-29T19:23:15;19.10;99.90
9939;DHT22;5008;50.656;7.188;2023-07-29T19:25:45;19.00;99.90
9939;DHT22;5008;50.656;7.188;2023-07-29T19:28:12;19.00;99.90
9939;DHT22;5008;50.656;7.188;2023-07-29T19:30:39;19.00;99.90
9939;DHT22;5008;50.656;7.188;2023-07-29T19:33:06;18.90;99.90
9939;DHT22;5008;50.656;7.188;2023-07-29T19:35:33;18.90;99.90
9939;DHT22;5008;50.656;7.188;2023-07-29T19:38:00;18.90;99.90
9939;DHT22;5008;50.656;7.188;2023-07-29T19:40:26;18.90;99.90
9939;DHT22;5008;50.656;7.188;2023-07-29T19:42:55;18.90;99.90
9939;DHT22;5008;50.656;7.188;2023-07-29T19:45:31;19.10;99.90
9939;DHT22;5008;50.656;7.188;2023-07-29T19:47:57;19.00;99.90
9939;DHT22;5008;50.656;7.188;2023-07-29T19:50:28;19.00;99.90
9939;DHT22;5008;50.656;7.188;2023-07-29T19:52:55;18.90;99.90
9939;DHT22;5008;50.656;7.188;2023-07-29T19:55:22;19.00;99.90
9939;DHT22;5008;50.656;7.188;2023-07-29T19:57:49;19.00;99.90
9939;DHT22;5008;50.656;7.188;2023-07-29T20:00:18;19.00;99.90